createdAt,value
2016-07-22T00:00:17.999Z,69.74
2016-07-22T00:01:18.027Z,69.65
2016-07-22T00:02:18.060Z,69.36
2016-07-22T00:03:18.090Z,70.23
2016-07-22T00:04:18.152Z,69.65
2016-07-22T00:05:18.146Z,70.23
2016-07-22T00:06:18.890Z,69.74
2016-07-22T00:07:18.211Z,69.65
2016-07-22T00:08:18.367Z,69.46
2016-07-22T00:09:18.286Z,70.32
2016-07-22T00:10:18.299Z,70.52
2016-07-22T00:11:19.042Z,70.52
2016-07-22T00:12:18.362Z,70.32
2016-07-22T00:13:18.395Z,69.74
2016-07-22T00:14:18.424Z,69.74
2016-07-22T00:15:18.457Z,69.56
2016-07-22T00:16:18.483Z,70.32
2016-07-22T00:17:18.512Z,69.84
2016-07-22T00:18:18.553Z,70.32
2016-07-22T00:19:18.574Z,70.14
2016-07-22T00:20:18.605Z,70.81
2016-07-22T00:21:18.634Z,70.14
2016-07-22T00:22:18.662Z,70.62
2016-07-22T00:23:18.697Z,70.42
2016-07-22T00:24:18.927Z,70.81
2016-07-22T00:25:18.752Z,70.81
2016-07-22T00:26:18.784Z,70.62
2016-07-22T00:27:18.814Z,70.14
2016-07-22T00:28:18.844Z,70.81
2016-07-22T00:29:19.600Z,70.81
2016-07-22T00:30:18.905Z,70.62
2016-07-22T00:31:18.952Z,70.81
2016-07-22T00:32:19.675Z,70.9
2016-07-22T00:33:18.993Z,71
2016-07-22T00:34:19.024Z,70.62
2016-07-22T00:35:19.056Z,70.52
2016-07-22T00:36:19.086Z,70.9
2016-07-22T00:37:19.115Z,70.42
2016-07-22T00:38:19.157Z,70.32
2016-07-22T00:39:19.180Z,70.62
2016-07-22T00:40:20.799Z,70.52
2016-07-22T00:41:20.474Z,70.52
2016-07-22T00:42:19.264Z,70.72
2016-07-22T00:43:19.297Z,70.81
2016-07-22T00:44:19.325Z,70.62
2016-07-22T00:45:19.357Z,70.32
2016-07-22T00:46:19.391Z,70.81
2016-07-22T00:47:19.419Z,70.23
2016-07-22T00:48:19.447Z,70.81
2016-07-22T00:49:19.477Z,70.32
2016-07-22T00:50:19.532Z,70.42
2016-07-22T00:51:19.536Z,70.23
2016-07-22T00:52:19.570Z,70.32
2016-07-22T00:53:19.599Z,70.32
2016-07-22T00:54:20.559Z,69.65
2016-07-22T00:55:19.658Z,70.32
2016-07-22T00:56:19.697Z,70.04
2016-07-22T00:57:19.720Z,69.65
2016-07-22T00:58:19.753Z,69.36
2016-07-22T00:59:20.490Z,69.65
2016-07-22T01:00:19.810Z,70.39
2016-07-22T01:01:20.548Z,70.42
2016-07-22T01:02:19.879Z,70.23
2016-07-22T01:03:19.909Z,70.2
2016-07-22T01:04:19.933Z,70.52
2016-07-22T01:05:20.017Z,70.42
2016-07-22T01:06:19.988Z,70
2016-07-22T01:07:20.021Z,70.39
2016-07-22T01:08:20.049Z,70.14
2016-07-22T01:09:20.789Z,70.32
2016-07-22T01:10:20.108Z,70.68
2016-07-22T01:11:20.136Z,70.14
2016-07-22T01:12:20.167Z,70.58
2016-07-22T01:13:20.200Z,70.78
2016-07-22T01:14:20.228Z,70.97
2016-07-22T01:15:20.259Z,70.78
2016-07-22T01:16:20.288Z,70.78
2016-07-22T01:17:20.316Z,70.48
2016-07-22T01:18:20.398Z,70.78
2016-07-22T01:19:20.397Z,70.97
2016-07-22T01:20:20.462Z,71.36
2016-07-22T01:21:20.439Z,71.26
2016-07-22T01:22:20.479Z,71.16
2016-07-22T01:23:20.497Z,70.78
2016-07-22T01:24:20.727Z,70.68
2016-07-22T01:25:20.574Z,70.58
2016-07-22T01:26:20.600Z,70.87
2016-07-22T01:27:20.619Z,70.87
2016-07-22T01:28:20.649Z,70.58
2016-07-22T01:29:20.677Z,70.39
2016-07-22T01:30:20.707Z,70.87
2016-07-22T01:31:20.816Z,70.58
2016-07-22T01:32:20.765Z,70.68
2016-07-22T01:33:20.797Z,71.16
2016-07-22T01:34:20.831Z,71.36
2016-07-22T01:35:20.856Z,70.97
2016-07-22T01:36:20.929Z,71.36
2016-07-22T01:37:20.958Z,71.06
2016-07-22T01:38:20.945Z,70.78
2016-07-22T01:39:20.979Z,71.16
2016-07-22T01:40:21.006Z,70.58
2016-07-22T01:41:21.033Z,70.78
2016-07-22T01:42:21.063Z,70.87
2016-07-22T01:43:21.094Z,70.97
2016-07-22T01:44:21.143Z,70.68
2016-07-22T01:45:21.154Z,70.87
2016-07-22T01:46:21.181Z,71.12
2016-07-22T01:47:21.213Z,71.36
2016-07-22T01:48:21.242Z,71.16
2016-07-22T01:49:21.273Z,70.54
2016-07-22T01:50:21.301Z,70.94
2016-07-22T01:51:21.332Z,70.94
2016-07-22T01:52:21.366Z,71.12
2016-07-22T01:53:22.743Z,70.54
2016-07-22T01:54:21.427Z,70.94
2016-07-22T01:55:21.449Z,71.03
2016-07-22T01:56:21.482Z,70.74
2016-07-22T01:57:21.510Z,70.64
2016-07-22T01:58:21.538Z,70.64
2016-07-22T01:59:22.287Z,70.74
2016-07-22T02:00:21.599Z,71.32
2016-07-22T02:01:21.649Z,71.61
2016-07-22T02:02:21.659Z,70.74
2016-07-22T02:03:21.689Z,70.74
2016-07-22T02:04:21.717Z,70.94
2016-07-22T02:05:21.858Z,70.74
2016-07-22T02:06:21.778Z,71.03
2016-07-22T02:07:22.520Z,70.7
2016-07-22T02:08:22.012Z,71.03
2016-07-22T02:09:21.871Z,71.12
2016-07-22T02:10:21.895Z,71.22
2016-07-22T02:11:21.924Z,71.38
2016-07-22T02:12:21.951Z,71.38
2016-07-22T02:13:22.694Z,71.09
2016-07-22T02:14:22.013Z,71.09
2016-07-22T02:15:22.042Z,71.28
2016-07-22T02:16:22.071Z,71.38
2016-07-22T02:17:22.112Z,71.48
2016-07-22T02:18:22.131Z,72.06
2016-07-22T02:19:22.158Z,72.25
2016-07-22T02:20:22.194Z,71.67
2016-07-22T02:21:22.217Z,71.67
2016-07-22T02:22:22.248Z,71.96
2016-07-22T02:23:22.477Z,71.77
2016-07-22T02:24:22.306Z,72.34
2016-07-22T02:25:22.335Z,71.77
2016-07-22T02:26:22.365Z,72.25
2016-07-22T02:27:23.104Z,72.44
2016-07-22T02:28:22.424Z,71.77
2016-07-22T02:29:22.454Z,71.28
2016-07-22T02:30:22.482Z,71.28
2016-07-22T02:31:22.509Z,71.48
2016-07-22T02:32:22.546Z,71.77
2016-07-22T02:33:22.575Z,72.06
2016-07-22T02:34:22.611Z,72.44
2016-07-22T02:35:22.633Z,72.54
2016-07-22T02:36:22.658Z,72.54
2016-07-22T02:37:22.688Z,72.25
2016-07-22T02:38:22.715Z,72.25
2016-07-22T02:39:22.745Z,72.15
2016-07-22T02:40:22.776Z,72.25
2016-07-22T02:41:22.815Z,72.25
2016-07-22T02:42:22.842Z,72.34
2016-07-22T02:43:22.861Z,72.15
2016-07-22T02:44:22.892Z,71.96
2016-07-22T02:45:22.923Z,72.06
2016-07-22T02:46:22.951Z,71.86
2016-07-22T02:47:22.990Z,72.15
2016-07-22T02:48:23.008Z,72.54
2016-07-22T02:49:23.749Z,72.15
2016-07-22T02:50:23.068Z,72.34
2016-07-22T02:51:23.098Z,72.15
2016-07-22T02:52:23.128Z,72.83
2016-07-22T02:53:23.157Z,72.54
2016-07-22T02:54:23.185Z,72.44
2016-07-22T02:55:23.924Z,72.34
2016-07-22T02:56:23.959Z,72.73
2016-07-22T02:57:23.274Z,72.63
2016-07-22T02:58:23.322Z,72.73
2016-07-22T02:59:23.332Z,72.44
2016-07-22T03:00:23.361Z,72.44
2016-07-22T03:01:23.401Z,72.15
2016-07-22T03:02:23.568Z,72.15
2016-07-22T03:03:23.448Z,72.15
2016-07-22T03:04:23.475Z,72.25
2016-07-22T03:05:23.529Z,72.06
2016-07-22T03:06:23.538Z,71.86
2016-07-22T03:07:23.565Z,71.77
2016-07-22T03:08:23.598Z,71.58
2016-07-22T03:09:24.334Z,72.34
2016-07-22T03:10:23.653Z,72.34
2016-07-22T03:11:23.682Z,72.06
2016-07-22T03:12:23.713Z,71.77
2016-07-22T03:13:23.748Z,72.44
2016-07-22T03:14:23.777Z,72.63
2016-07-22T03:15:23.799Z,72.44
2016-07-22T03:16:24.543Z,72.34
2016-07-22T03:17:23.859Z,72.44
2016-07-22T03:18:23.885Z,71.86
2016-07-22T03:19:23.916Z,72.06
2016-07-22T03:20:23.944Z,72.06
2016-07-22T03:21:23.975Z,72.73
2016-07-22T03:22:24.006Z,72.83
2016-07-22T03:23:24.750Z,72.54
2016-07-22T03:24:24.065Z,72.63
2016-07-22T03:25:24.091Z,72.63
2016-07-22T03:26:24.120Z,72.63
2016-07-22T03:27:24.152Z,72.25
2016-07-22T03:28:24.179Z,72.34
2016-07-22T03:29:24.920Z,72.44
2016-07-22T03:30:24.947Z,72.25
2016-07-22T03:31:24.284Z,72.25
2016-07-22T03:32:24.295Z,72.44
2016-07-22T03:33:24.324Z,72.63
2016-07-22T03:34:24.356Z,72.73
2016-07-22T03:35:24.383Z,72.54
2016-07-22T03:36:24.426Z,72.54
2016-07-22T03:37:24.442Z,72.25
2016-07-22T03:38:24.498Z,72.63
2016-07-22T03:39:24.505Z,72.44
2016-07-22T03:40:24.526Z,73.11
2016-07-22T03:41:24.564Z,72.54
2016-07-22T03:42:24.588Z,72.54
2016-07-22T03:43:24.617Z,72.34
2016-07-22T03:44:25.362Z,72.54
2016-07-22T03:45:24.675Z,73.11
2016-07-22T03:46:24.705Z,72.54
2016-07-22T03:47:25.442Z,73.02
2016-07-22T03:48:24.762Z,73.11
2016-07-22T03:49:24.790Z,73.11
2016-07-22T03:50:24.820Z,72.92
2016-07-22T03:51:24.848Z,73.21
2016-07-22T03:52:24.878Z,73.02
2016-07-22T03:53:25.631Z,72.92
2016-07-22T03:54:24.936Z,73.11
2016-07-22T03:55:24.971Z,73.11
2016-07-22T03:56:25.571Z,72.73
2016-07-22T03:57:25.027Z,73.21
2016-07-22T03:58:25.052Z,72.92
2016-07-22T03:59:25.083Z,72.34
2016-07-22T04:00:25.109Z,72.63
2016-07-22T04:01:25.141Z,72.44
2016-07-22T04:02:25.880Z,72.63
2016-07-22T04:03:25.211Z,72.06
2016-07-22T04:04:25.227Z,72.25
2016-07-22T04:05:25.255Z,72.83
2016-07-22T04:06:26.493Z,72.44
2016-07-22T04:07:25.318Z,72.34
2016-07-22T04:08:25.344Z,72.25
2016-07-22T04:09:25.374Z,72.06
2016-07-22T04:10:25.419Z,72.25
2016-07-22T04:11:25.434Z,72.15
2016-07-22T04:12:25.460Z,71.86
2016-07-22T04:13:25.489Z,71.96
2016-07-22T04:14:25.521Z,72.25
2016-07-22T04:15:25.550Z,72.34
2016-07-22T04:16:26.284Z,72.25
2016-07-22T04:17:25.608Z,72.34
2016-07-22T04:18:26.345Z,72.34
2016-07-22T04:19:25.667Z,72.54
2016-07-22T04:20:25.696Z,73.02
2016-07-22T04:21:25.722Z,73.21
2016-07-22T04:22:25.755Z,72.92
2016-07-22T04:23:25.783Z,73.21
2016-07-22T04:24:25.819Z,73.06
2016-07-22T04:25:25.841Z,72.38
2016-07-22T04:26:25.876Z,72.48
2016-07-22T04:27:25.903Z,72.48
2016-07-22T04:28:25.931Z,72.38
2016-07-22T04:29:25.972Z,72.67
2016-07-22T04:30:25.986Z,72.38
2016-07-22T04:31:26.017Z,72.38
2016-07-22T04:32:26.045Z,72.48
2016-07-22T04:33:26.075Z,72.67
2016-07-22T04:34:26.106Z,72.38
2016-07-22T04:35:26.845Z,72.19
2016-07-22T04:36:26.174Z,72.67
2016-07-22T04:37:26.193Z,72.58
2016-07-22T04:38:26.220Z,72.67
2016-07-22T04:39:26.250Z,72.58
2016-07-22T04:40:26.280Z,72.19
2016-07-22T04:41:26.307Z,72.09
2016-07-22T04:42:26.339Z,72.28
2016-07-22T04:43:26.380Z,72.09
2016-07-22T04:44:26.396Z,72.19
2016-07-22T04:45:26.428Z,72.58
2016-07-22T04:46:26.454Z,72.28
2016-07-22T04:47:26.487Z,72.67
2016-07-22T04:48:26.515Z,72.77
2016-07-22T04:49:26.541Z,72.38
2016-07-22T04:50:26.577Z,72.48
2016-07-22T04:51:26.600Z,72.48
2016-07-22T04:52:26.633Z,73.06
2016-07-22T04:53:26.661Z,73.06
2016-07-22T04:54:26.691Z,73.35
2016-07-22T04:55:26.722Z,73.15
2016-07-22T04:56:26.748Z,72.28
2016-07-22T04:57:27.492Z,72.71
2016-07-22T04:58:26.809Z,72.28
2016-07-22T04:59:26.840Z,72.32
2016-07-22T05:00:26.886Z,72.71
2016-07-22T05:01:26.897Z,72.48
2016-07-22T05:02:26.928Z,72.61
2016-07-22T05:03:26.961Z,72.9
2016-07-22T05:04:26.987Z,72.61
2016-07-22T05:05:27.015Z,72.32
2016-07-22T05:06:27.048Z,72.32
2016-07-22T05:07:27.093Z,72.32
2016-07-22T05:08:27.102Z,73.09
2016-07-22T05:09:27.134Z,73.19
2016-07-22T05:10:27.163Z,73.38
2016-07-22T05:11:27.191Z,73.19
2016-07-22T05:12:27.224Z,73.38
2016-07-22T05:13:27.252Z,73.48
2016-07-22T05:14:27.992Z,72.9
2016-07-22T05:15:27.312Z,73.19
2016-07-22T05:16:27.387Z,73.19
2016-07-22T05:17:27.370Z,72.32
2016-07-22T05:18:27.395Z,72.42
2016-07-22T05:19:27.429Z,72.71
2016-07-22T05:20:27.464Z,72.71
2016-07-22T05:21:27.488Z,72.71
2016-07-22T05:22:27.520Z,72.71
2016-07-22T05:23:27.549Z,72.32
2016-07-22T05:24:27.578Z,72.71
2016-07-22T05:25:27.607Z,72.8
2016-07-22T05:26:27.637Z,72.13
2016-07-22T05:27:27.666Z,72.22
2016-07-22T05:28:27.695Z,72.42
2016-07-22T05:29:27.726Z,72.13
2016-07-22T05:30:27.756Z,71.84
2016-07-22T05:31:27.785Z,72.13
2016-07-22T05:32:27.839Z,71.94
2016-07-22T05:33:27.847Z,72.13
2016-07-22T05:34:27.876Z,72.03
2016-07-22T05:35:27.903Z,72.22
2016-07-22T05:36:28.644Z,72.32
2016-07-22T05:37:27.962Z,72.22
2016-07-22T05:38:27.992Z,72.8
2016-07-22T05:39:28.021Z,72.8
2016-07-22T05:40:28.056Z,72.42
2016-07-22T05:41:28.079Z,72.13
2016-07-22T05:42:28.112Z,71.94
2016-07-22T05:43:28.140Z,72.61
2016-07-22T05:44:28.172Z,72.61
2016-07-22T05:45:28.347Z,72.13
2016-07-22T05:46:28.227Z,72.61
2016-07-22T05:47:28.261Z,72.71
2016-07-22T05:48:28.294Z,72.61
2016-07-22T05:49:28.341Z,73.09
2016-07-22T05:50:28.352Z,72.52
2016-07-22T05:51:28.447Z,71.84
2016-07-22T05:52:29.357Z,72.52
2016-07-22T05:53:28.444Z,72.61
2016-07-22T05:54:28.468Z,72.22
2016-07-22T05:55:28.495Z,72.28
2016-07-22T05:56:28.547Z,72.52
2016-07-22T05:57:28.559Z,73.25
2016-07-22T05:58:28.586Z,73.38
2016-07-22T05:59:29.835Z,73.28
2016-07-22T06:00:29.923Z,72.9
2016-07-22T06:01:28.674Z,72.71
2016-07-22T06:02:28.704Z,72.52
2016-07-22T06:03:28.732Z,72.52
2016-07-22T06:04:29.476Z,72.71
2016-07-22T06:05:28.795Z,73.09
2016-07-22T06:06:28.823Z,72.13
2016-07-22T06:07:28.854Z,73
2016-07-22T06:08:28.884Z,73.19
2016-07-22T06:09:28.915Z,73.48
2016-07-22T06:10:28.942Z,73.48
2016-07-22T06:11:28.971Z,73.96
2016-07-22T06:12:29.713Z,73.58
2016-07-22T06:13:29.031Z,73.48
2016-07-22T06:14:29.060Z,73.38
2016-07-22T06:15:29.091Z,73.58
2016-07-22T06:16:29.118Z,72.71
2016-07-22T06:17:29.157Z,73.19
2016-07-22T06:18:29.181Z,73
2016-07-22T06:19:29.923Z,73
2016-07-22T06:20:29.239Z,73.09
2016-07-22T06:21:29.268Z,73.28
2016-07-22T06:22:30.007Z,73.09
2016-07-22T06:23:29.328Z,73.19
2016-07-22T06:24:30.065Z,73.19
2016-07-22T06:25:29.386Z,73.09
2016-07-22T06:26:29.423Z,72.8
2016-07-22T06:27:29.446Z,72.8
2016-07-22T06:28:29.482Z,72.71
2016-07-22T06:29:29.511Z,72.61
2016-07-22T06:30:29.535Z,72.32
2016-07-22T06:31:29.567Z,71.94
2016-07-22T06:32:29.596Z,72.13
2016-07-22T06:33:29.627Z,72.42
2016-07-22T06:34:29.657Z,72.32
2016-07-22T06:35:29.692Z,72.32
2016-07-22T06:36:29.717Z,72.42
2016-07-22T06:37:29.746Z,72.61
2016-07-22T06:38:29.775Z,72.61
2016-07-22T06:39:29.804Z,72.8
2016-07-22T06:40:29.834Z,72.71
2016-07-22T06:41:29.864Z,72.42
2016-07-22T06:42:29.894Z,72.61
2016-07-22T06:43:29.922Z,72.61
2016-07-22T06:44:29.955Z,72.13
2016-07-22T06:45:30.005Z,72.32
2016-07-22T06:46:30.016Z,72.61
2016-07-22T06:47:30.041Z,72.45
2016-07-22T06:48:30.073Z,73.28
2016-07-22T06:49:30.104Z,73
2016-07-22T06:50:30.131Z,73.09
2016-07-22T06:51:30.161Z,73.28
2016-07-22T06:52:30.193Z,72.42
2016-07-22T06:53:30.231Z,72.71
2016-07-22T06:54:30.253Z,72.71
2016-07-22T06:55:30.282Z,72.61
2016-07-22T06:56:31.020Z,72.32
2016-07-22T06:57:30.350Z,72.16
2016-07-22T06:58:30.370Z,72.42
2016-07-22T06:59:30.397Z,72.06
2016-07-22T07:00:30.435Z,71.97
2016-07-22T07:01:30.458Z,71.74
2016-07-22T07:02:30.527Z,71.84
2016-07-22T07:03:30.543Z,72.03
2016-07-22T07:04:30.551Z,71.84
2016-07-22T07:05:30.579Z,71.74
2016-07-22T07:06:30.609Z,71.2
2016-07-22T07:07:30.640Z,71.3
2016-07-22T07:08:30.895Z,71.3
2016-07-22T07:09:30.699Z,71.2
2016-07-22T07:10:30.750Z,71.97
2016-07-22T07:11:30.761Z,72.16
2016-07-22T07:12:30.789Z,71.2
2016-07-22T07:13:30.818Z,71.88
2016-07-22T07:14:30.847Z,71.3
2016-07-22T07:15:30.879Z,71.2
2016-07-22T07:16:31.617Z,71.2
2016-07-22T07:17:30.936Z,70.62
2016-07-22T07:18:30.970Z,71.3
2016-07-22T07:19:30.997Z,71.33
2016-07-22T07:20:31.030Z,70.84
2016-07-22T07:21:31.061Z,70.46
2016-07-22T07:22:31.088Z,71.2
2016-07-22T07:23:31.117Z,71.91
2016-07-22T07:24:31.150Z,71.97
2016-07-22T07:25:31.184Z,71.42
2016-07-22T07:26:31.205Z,71.33
2016-07-22T07:27:31.255Z,71.72
2016-07-22T07:28:31.270Z,70.94
2016-07-22T07:29:31.302Z,71.14
2016-07-22T07:30:31.335Z,71.62
2016-07-22T07:31:31.366Z,71.52
2016-07-22T07:32:31.391Z,70.65
2016-07-22T07:33:31.443Z,70.78
2016-07-22T07:34:31.461Z,70.46
2016-07-22T07:35:31.487Z,70.26
2016-07-22T07:36:31.519Z,69.78
2016-07-22T07:37:31.541Z,68.75
2016-07-22T07:38:31.572Z,70.17
2016-07-22T07:39:31.603Z,70.07
2016-07-22T07:40:31.635Z,70.26
2016-07-22T07:41:31.664Z,70.46
2016-07-22T07:42:31.693Z,69.68
2016-07-22T07:43:31.726Z,68.33
2016-07-22T07:44:31.756Z,68.75
2016-07-22T07:45:31.785Z,67.98
2016-07-22T07:46:31.818Z,68.27
2016-07-22T07:47:31.847Z,69.72
2016-07-22T07:48:31.877Z,69.53
2016-07-22T07:49:31.906Z,69.53
2016-07-22T07:50:31.939Z,68.08
2016-07-22T07:51:32.039Z,68.3
2016-07-22T07:52:32.002Z,69.27
2016-07-22T07:53:32.037Z,69.46
2016-07-22T07:54:32.062Z,68.21
2016-07-22T07:55:32.094Z,68.3
2016-07-22T07:56:32.122Z,67.72
2016-07-22T07:57:32.158Z,68.3
2016-07-22T07:58:32.184Z,66.47
2016-07-22T07:59:32.219Z,66.08
2016-07-22T08:00:32.247Z,66.78
2016-07-22T08:01:32.277Z,67.46
2016-07-22T08:02:32.307Z,66.98
2016-07-22T08:03:32.341Z,66.78
2016-07-22T08:04:32.371Z,67.18
2016-07-22T08:05:32.402Z,66.02
2016-07-22T08:06:32.434Z,67.3
2016-07-22T08:07:32.482Z,66.92
2016-07-22T08:08:32.495Z,67.21
2016-07-22T08:09:32.528Z,67.11
2016-07-22T08:10:32.555Z,65.37
2016-07-22T08:11:32.590Z,64.69
2016-07-22T08:12:32.627Z,64.2
2016-07-22T08:13:32.653Z,64.3
2016-07-22T08:14:32.685Z,64.2
2016-07-22T08:15:32.715Z,63.24
2016-07-22T08:16:32.762Z,62.85
2016-07-22T08:17:32.803Z,62.98
2016-07-22T08:18:32.807Z,62.75
2016-07-22T08:19:32.841Z,61.91
2016-07-22T08:20:32.870Z,62.49
2016-07-22T08:21:32.903Z,62.49
2016-07-22T08:22:32.935Z,62.3
2016-07-22T08:23:32.965Z,63.17
2016-07-22T08:24:33.010Z,62.69
2016-07-22T08:25:33.036Z,62.01
2016-07-22T08:26:33.063Z,62.49
2016-07-22T08:27:33.094Z,62.4
2016-07-22T08:28:33.123Z,62.2
2016-07-22T08:29:33.156Z,60.94
2016-07-22T08:30:33.187Z,61.75
2016-07-22T08:31:33.941Z,62.2
2016-07-22T08:32:33.960Z,62.4
2016-07-22T08:33:33.298Z,61.65
2016-07-22T08:34:33.312Z,61.26
2016-07-22T08:35:33.346Z,61.46
2016-07-22T08:36:33.377Z,62.23
2016-07-22T08:37:33.408Z,62.91
2016-07-22T08:38:33.442Z,61.46
2016-07-22T08:39:33.472Z,61.36
2016-07-22T08:40:33.507Z,61.26
2016-07-22T08:41:33.538Z,60.52
2016-07-22T08:42:33.569Z,60.52
2016-07-22T08:43:33.601Z,60.03
2016-07-22T08:44:33.634Z,59.26
2016-07-22T08:45:33.664Z,58.97
2016-07-22T08:46:33.697Z,58.67
2016-07-22T08:47:33.729Z,58.97
2016-07-22T08:48:33.760Z,59.64
2016-07-22T08:49:33.815Z,59.84
2016-07-22T08:50:33.824Z,59.36
2016-07-22T08:51:33.856Z,59.58
2016-07-22T08:52:33.891Z,59.48
2016-07-22T08:53:33.921Z,60.45
2016-07-22T08:54:34.663Z,60.55
2016-07-22T08:55:33.984Z,59.28
2016-07-22T08:56:34.016Z,59.19
2016-07-22T08:57:34.051Z,58.9
2016-07-22T08:58:34.101Z,59.9
2016-07-22T08:59:34.113Z,59.31
2016-07-22T09:00:34.147Z,59.22
2016-07-22T09:01:34.178Z,58.83
2016-07-22T09:02:34.922Z,58.93
2016-07-22T09:03:34.242Z,58.34
2016-07-22T09:04:34.989Z,57.37
2016-07-22T09:05:34.310Z,56.79
2016-07-22T09:06:34.341Z,56.79
2016-07-22T09:07:34.371Z,56.89
2016-07-22T09:08:34.408Z,55.73
2016-07-22T09:09:34.438Z,56.7
2016-07-22T09:10:34.471Z,56.7
2016-07-22T09:11:35.213Z,56.11
2016-07-22T09:12:34.534Z,56.21
2016-07-22T09:13:35.487Z,56.79
2016-07-22T09:14:34.617Z,56.11
2016-07-22T09:15:34.636Z,56.6
2016-07-22T09:16:35.375Z,56.21
2016-07-22T09:17:34.699Z,56.6
2016-07-22T09:18:35.485Z,56.5
2016-07-22T09:19:34.762Z,56.43
2016-07-22T09:20:34.797Z,57.01
2016-07-22T09:21:34.830Z,58.18
2016-07-22T09:22:34.866Z,57.79
2016-07-22T09:23:34.918Z,56.72
2016-07-22T09:24:34.927Z,56.43
2016-07-22T09:25:34.966Z,56.52
2016-07-22T09:26:35.112Z,55.46
2016-07-22T09:27:35.028Z,53.91
2016-07-22T09:28:35.486Z,54.1
2016-07-22T09:29:35.526Z,55.39
2016-07-22T09:30:35.125Z,56.07
2016-07-22T09:31:35.162Z,55.39
2016-07-22T09:32:35.194Z,55.39
2016-07-22T09:33:35.945Z,55.19
2016-07-22T09:34:35.255Z,54.03
2016-07-22T09:35:35.291Z,54.32
2016-07-22T09:36:36.032Z,54.32
2016-07-22T09:37:35.408Z,55.1
2016-07-22T09:38:35.554Z,55.29
2016-07-22T09:39:35.426Z,55.13
2016-07-22T09:40:35.506Z,53.74
2016-07-22T09:41:35.488Z,53.38
2016-07-22T09:42:36.403Z,52.59
2016-07-22T09:43:35.554Z,52.79
2016-07-22T09:44:35.587Z,52.11
2016-07-22T09:45:36.328Z,52.4
2016-07-22T09:46:35.651Z,53.28
2016-07-22T09:47:35.698Z,52.31
2016-07-22T09:48:36.457Z,52.14
2016-07-22T09:49:35.755Z,51.82
2016-07-22T09:50:36.542Z,53.4
2016-07-22T09:51:35.819Z,52.92
2016-07-22T09:52:35.905Z,53.3
2016-07-22T09:53:35.888Z,53.99
2016-07-22T09:54:35.919Z,52.23
2016-07-22T09:55:35.986Z,53.4
2016-07-22T09:56:36.007Z,53.2
2016-07-22T09:57:36.021Z,52.53
2016-07-22T09:58:36.054Z,50.97
2016-07-22T09:59:36.086Z,52.53
2016-07-22T10:00:36.121Z,51.17
2016-07-22T10:01:36.153Z,51.55
2016-07-22T10:02:36.897Z,51.26
2016-07-22T10:03:36.222Z,51.29
2016-07-22T10:04:36.260Z,51.97
2016-07-22T10:05:36.297Z,49.24
2016-07-22T10:06:36.320Z,50.51
2016-07-22T10:07:36.351Z,51.19
2016-07-22T10:08:36.403Z,51.19
2016-07-22T10:09:36.423Z,50.41
2016-07-22T10:10:36.457Z,50.31
2016-07-22T10:11:36.488Z,50.21
2016-07-22T10:12:36.521Z,50.51
2016-07-22T10:13:36.561Z,48.85
2016-07-22T10:14:36.607Z,48.88
2016-07-22T10:15:36.626Z,49.05
2016-07-22T10:16:36.658Z,49.46
2016-07-22T10:17:37.405Z,49.76
2016-07-22T10:18:36.727Z,48.78
2016-07-22T10:19:36.760Z,49.56
2016-07-22T10:20:36.794Z,49.07
2016-07-22T10:21:36.831Z,47.98
2016-07-22T10:22:36.975Z,48.27
2016-07-22T10:23:37.936Z,48.56
2016-07-22T10:24:36.932Z,48.95
2016-07-22T10:25:37.673Z,48.46
2016-07-22T10:26:36.997Z,48.27
2016-07-22T10:27:37.740Z,48.27
2016-07-22T10:28:37.063Z,48.85
2016-07-22T10:29:37.100Z,47.88
2016-07-22T10:30:37.130Z,48.46
2016-07-22T10:31:37.164Z,49.54
2016-07-22T10:32:38.636Z,48.88
2016-07-22T10:33:37.233Z,48.49
2016-07-22T10:34:37.266Z,49.17
2016-07-22T10:35:37.303Z,48.88
2016-07-22T10:36:37.334Z,48.58
2016-07-22T10:37:37.368Z,48.68
2016-07-22T10:38:37.403Z,49.17
2016-07-22T10:39:37.436Z,48.19
2016-07-22T10:40:37.468Z,48.1
2016-07-22T10:41:37.506Z,48.49
2016-07-22T10:42:37.538Z,49.07
2016-07-22T10:43:37.575Z,48.88
2016-07-22T10:44:37.608Z,48.71
2016-07-22T10:45:37.639Z,48.32
2016-07-22T10:46:37.677Z,48.12
2016-07-22T10:47:37.709Z,47.25
2016-07-22T10:48:38.452Z,48.12
2016-07-22T10:49:38.487Z,48.71
2016-07-22T10:50:37.812Z,48.02
2016-07-22T10:51:38.555Z,47.17
2016-07-22T10:52:37.881Z,47.34
2016-07-22T10:53:37.913Z,46.47
2016-07-22T10:54:37.947Z,46.86
2016-07-22T10:55:37.987Z,46.49
2016-07-22T10:56:38.726Z,47.36
2016-07-22T10:57:38.051Z,46.88
2016-07-22T10:58:38.091Z,46.97
2016-07-22T10:59:38.119Z,46.49
2016-07-22T11:00:38.154Z,47.95
2016-07-22T11:01:38.193Z,47.17
2016-07-22T11:02:38.220Z,47.66
2016-07-22T11:03:38.266Z,46.97
2016-07-22T11:04:38.302Z,45.9
2016-07-22T11:05:38.326Z,48.05
2016-07-22T11:06:38.359Z,46.97
2016-07-22T11:07:38.395Z,46.78
2016-07-22T11:08:38.431Z,45.73
2016-07-22T11:09:38.461Z,46.88
2016-07-22T11:10:38.502Z,47.07
2016-07-22T11:11:38.531Z,46.78
2016-07-22T11:12:38.574Z,48.05
2016-07-22T11:13:38.610Z,46.8
2016-07-22T11:14:38.635Z,45.15
2016-07-22T11:15:38.670Z,46.31
2016-07-22T11:16:38.704Z,46.41
2016-07-22T11:17:38.739Z,46.02
2016-07-22T11:18:38.774Z,45.34
2016-07-22T11:19:38.807Z,45.05
2016-07-22T11:20:38.859Z,46.39
2016-07-22T11:21:38.877Z,47.09
2016-07-22T11:22:38.911Z,46.51
2016-07-22T11:23:38.946Z,46.61
2016-07-22T11:24:38.982Z,46.22
2016-07-22T11:25:39.013Z,45.25
2016-07-22T11:26:39.048Z,45.92
2016-07-22T11:27:39.090Z,45.05
2016-07-22T11:28:39.119Z,44.46
2016-07-22T11:29:39.163Z,45.92
2016-07-22T11:30:39.188Z,46.22
2016-07-22T11:31:39.222Z,45.25
2016-07-22T11:32:39.256Z,45.73
2016-07-22T11:33:39.291Z,46.9
2016-07-22T11:34:39.325Z,45.92
2016-07-22T11:35:39.357Z,46.12
2016-07-22T11:36:39.393Z,45.92
2016-07-22T11:37:39.438Z,45.05
2016-07-22T11:38:39.465Z,45.95
2016-07-22T11:39:39.499Z,45.75
2016-07-22T11:40:39.533Z,45.95
2016-07-22T11:41:39.573Z,45.75
2016-07-22T11:42:39.601Z,44.68
2016-07-22T11:43:39.638Z,44.58
2016-07-22T11:44:39.673Z,44.38
2016-07-22T11:45:39.706Z,45.15
2016-07-22T11:46:39.749Z,45.65
2016-07-22T11:47:39.779Z,44.78
2016-07-22T11:48:39.820Z,44.68
2016-07-22T11:49:39.845Z,44.78
2016-07-22T11:50:39.881Z,45.05
2016-07-22T11:51:39.916Z,45.65
2016-07-22T11:52:39.950Z,44.68
2016-07-22T11:53:41.612Z,45.95
2016-07-22T11:54:40.026Z,46.34
2016-07-22T11:55:40.053Z,46.34
2016-07-22T11:56:40.799Z,44.68
2016-07-22T11:57:40.831Z,44.38
2016-07-22T11:58:40.157Z,44.78
2016-07-22T11:59:40.904Z,44.97
2016-07-22T12:00:40.225Z,45.85
2016-07-22T12:01:40.263Z,46.04
2016-07-22T12:02:40.308Z,45.17
2016-07-22T12:03:40.333Z,45.75
2016-07-22T12:04:40.366Z,45.75
2016-07-22T12:05:40.402Z,44.09
2016-07-22T12:06:40.441Z,44.68
2016-07-22T12:07:40.470Z,45.26
2016-07-22T12:08:40.504Z,44.78
2016-07-22T12:09:40.539Z,45.56
2016-07-22T12:10:40.574Z,46.44
2016-07-22T12:11:40.613Z,45.36
2016-07-22T12:12:40.645Z,43.51
2016-07-22T12:13:40.680Z,44.09
2016-07-22T12:14:40.715Z,44.78
2016-07-22T12:15:40.747Z,45.07
2016-07-22T12:16:40.784Z,44.87
2016-07-22T12:17:41.529Z,43.61
2016-07-22T12:18:40.852Z,44.97
2016-07-22T12:19:40.888Z,43.71
2016-07-22T12:20:40.920Z,44.48
2016-07-22T12:21:40.954Z,43.61
2016-07-22T12:22:41.701Z,44.09
2016-07-22T12:23:41.024Z,44.68
2016-07-22T12:24:41.062Z,45.65
2016-07-22T12:25:41.097Z,43.33
2016-07-22T12:26:41.132Z,43.04
2016-07-22T12:27:41.165Z,42.93
2016-07-22T12:28:41.910Z,43.22
2016-07-22T12:29:41.237Z,42.83
2016-07-22T12:30:41.304Z,44.38
2016-07-22T12:31:41.303Z,44.38
2016-07-22T12:32:41.341Z,44.09
2016-07-22T12:33:41.375Z,43.51
2016-07-22T12:34:42.117Z,43.8
2016-07-22T12:35:41.442Z,42.83
2016-07-22T12:36:41.478Z,43.61
2016-07-22T12:37:41.512Z,42.93
2016-07-22T12:38:41.548Z,42.63
2016-07-22T12:39:41.583Z,42.93
2016-07-22T12:40:41.617Z,44.19
2016-07-22T12:41:41.654Z,44.38
2016-07-22T12:42:41.692Z,43.63
2016-07-22T12:43:41.722Z,44.41
2016-07-22T12:44:41.764Z,44.8
2016-07-22T12:45:42.728Z,43.73
2016-07-22T12:46:41.828Z,43.24
2016-07-22T12:47:41.863Z,43.24
2016-07-22T12:48:41.898Z,42.55
2016-07-22T12:49:41.931Z,42.44
2016-07-22T12:50:41.966Z,43.12
2016-07-22T12:51:42.003Z,44.58
2016-07-22T12:52:42.747Z,43.12
2016-07-22T12:53:42.079Z,42.93
2016-07-22T12:54:42.111Z,44.48
2016-07-22T12:55:42.141Z,43.9